Time;durP1;ratioP1;P1;durP2;ratioP2;P2;SDS_P1;SDS_P2;PMS_P1;PMS_P2;Temp;Humidity;BMP_temperature;BMP_pressure;BME280_temperature;BME280_humidity;BME280_pressure;Samples;Min_cycle;Max_cycle;Signal;HPM_P1;HPM_P2
2023/04/23 00:01:39;;;;;;;7.00;4.85;;;;;;;9.66;100.00;92261.75;5014587;28;20041;-77
2023/04/23 00:04:08;;;;;;;8.27;5.35;;;;;;;9.65;100.00;92260.19;5029727;28;20116;-77
2023/04/23 00:06:34;;;;;;;9.00;5.47;;;;;;;9.62;100.00;92252.94;5012848;28;20057;-78
2023/04/23 00:09:01;;;;;;;6.93;5.30;;;;;;;9.65;100.00;92262.03;5013277;28;20033;-78
2023/04/23 00:11:27;;;;;;;11.45;5.72;;;;;;;9.63;100.00;92262.31;5009035;28;20499;-77
2023/04/23 00:13:53;;;;;;;8.45;5.97;;;;;;;9.62;100.00;92255.56;5009660;28;20038;-78
2023/04/23 00:16:19;;;;;;;9.05;6.18;;;;;;;9.62;100.00;92241.72;4994686;28;20439;-78
2023/04/23 00:18:45;;;;;;;7.47;5.65;;;;;;;9.62;100.00;92239.88;4996106;28;20046;-77
2023/04/23 00:21:11;;;;;;;7.47;5.32;;;;;;;9.62;100.00;92239.88;5014244;28;20554;-78
2023/04/23 00:23:38;;;;;;;6.85;5.30;;;;;;;9.60;100.00;92247.22;5012532;28;20064;-78
2023/04/23 00:26:04;;;;;;;8.13;5.53;;;;;;;9.62;100.00;92249.56;5013968;28;20072;-77
2023/04/23 00:28:30;;;;;;;8.10;5.72;;;;;;;9.61;100.00;92240.91;5012378;28;20054;-77
2023/04/23 00:30:55;;;;;;;6.70;5.50;;;;;;;9.60;100.00;92247.22;5010373;28;20033;-77
2023/04/23 00:33:22;;;;;;;7.22;5.38;;;;;;;9.59;100.00;92243.84;5011119;28;20535;-77
2023/04/23 00:35:47;;;;;;;6.90;5.25;;;;;;;9.61;100.00;92246.13;5029383;28;20364;-77
2023/04/23 00:38:13;;;;;;;8.43;5.28;;;;;;;9.62;100.00;92249.56;5028366;28;20041;-78
2023/04/23 00:40:39;;;;;;;7.97;5.07;;;;;;;9.62;100.00;92242.47;5012437;28;20096;-78
2023/04/23 00:43:06;;;;;;;9.52;5.80;;;;;;;9.63;100.00;92240.63;5013586;28;20037;-77
2023/04/23 00:45:32;;;;;;;7.13;5.20;;;;;;;9.62;100.00;92234.66;5011411;28;20022;-78
2023/04/23 00:47:58;;;;;;;9.43;5.50;;;;;;;9.62;100.00;92233.88;5012538;28;20049;-78
2023/04/23 00:50:24;;;;;;;9.38;5.28;;;;;;;9.63;100.00;92236.19;4995556;28;20042;-78
2023/04/23 00:52:50;;;;;;;7.50;5.60;;;;;;;9.62;100.00;92239.09;5012413;28;20084;-78
2023/04/23 00:55:16;;;;;;;8.80;5.85;;;;;;;9.61;100.00;92227.06;5010877;28;20512;-78
2023/04/23 00:57:41;;;;;;;9.57;5.28;;;;;;;9.61;100.00;92232.31;5011970;28;20038;-78
2023/04/23 01:00:08;;;;;;;7.35;5.47;;;;;;;9.59;100.00;92236.00;5011323;28;20030;-78
2023/04/23 01:02:35;;;;;;;10.25;5.45;;;;;;;9.58;100.00;92228.44;5009094;28;20035;-78
2023/04/23 01:05:03;;;;;;;8.40;5.45;;;;;;;9.59;100.00;92228.16;4992675;28;20515;-78
2023/04/23 01:07:30;;;;;;;9.73;5.20;;;;;;;9.57;100.00;92219.06;4992187;28;20040;-78
2023/04/23 01:09:56;;;;;;;6.40;4.90;;;;;;;9.61;100.00;92220.00;5004869;28;20038;-78
2023/04/23 01:12:22;;;;;;;7.53;5.10;;;;;;;9.55;100.00;92221.16;5013779;28;20037;-78
2023/04/23 01:14:47;;;;;;;7.20;4.47;;;;;;;9.55;100.00;92226.41;5011807;28;20036;-78
2023/04/23 01:17:13;;;;;;;6.32;4.22;;;;;;;9.55;100.00;92223.78;5012158;28;20480;-76
2023/04/23 01:19:39;;;;;;;7.63;4.68;;;;;;;9.55;100.00;92226.41;4992471;28;20041;-76
2023/04/23 01:22:12;;;;;;;6.85;4.75;;;;;;;9.54;100.00;92224.84;5010211;28;20038;-77
2023/04/23 01:24:38;;;;;;;5.80;4.28;;;;;;;9.55;100.00;92223.78;5008665;28;20115;-77
2023/04/23 01:27:05;;;;;;;6.68;4.65;;;;;;;9.56;100.00;92230.56;5010173;28;20042;-76
2023/04/23 01:29:31;;;;;;;6.90;4.80;;;;;;;9.57;100.00;92225.03;4990460;28;20058;-76
2023/04/23 01:31:58;;;;;;;7.18;5.07;;;;;;;9.59;100.00;92225.53;5011530;28;20040;-77
2023/04/23 01:34:24;;;;;;;7.13;4.32;;;;;;;9.60;100.00;92223.69;5010438;28;20526;-76
2023/04/23 01:36:51;;;;;;;7.00;5.20;;;;;;;9.65;100.00;92225.44;5003787;28;20022;-76
2023/04/23 01:39:17;;;;;;;7.82;5.50;;;;;;;9.66;100.00;92221.75;5011492;28;20048;-76
2023/04/23 01:41:42;;;;;;;9.75;4.90;;;;;;;9.67;100.00;92225.94;5011458;28;20475;-76
2023/04/23 01:44:09;;;;;;;7.85;5.10;;;;;;;9.68;100.00;92223.06;4993648;28;20067;-76
2023/04/23 01:46:35;;;;;;;8.10;5.38;;;;;;;9.71;100.00;92226.94;5010923;28;20506;-77
2023/04/23 01:49:01;;;;;;;7.05;5.40;;;;;;;9.71;100.00;92226.94;5025596;28;20042;-76
2023/04/23 01:51:28;;;;;;;6.40;4.85;;;;;;;9.70;100.00;92220.13;5011074;28;20022;-77
2023/04/23 01:53:54;;;;;;;9.02;6.15;;;;;;;9.68;100.00;92215.22;5007773;28;20041;-76
2023/04/23 01:56:25;;;;;;;8.77;6.45;;;;;;;9.70;100.00;92223.53;4992540;28;20120;-76
2023/04/23 01:58:50;;;;;;;9.82;6.57;;;;;;;9.71;100.00;92222.47;5009176;28;20037;-77
2023/04/23 02:01:16;;;;;;;8.63;6.78;;;;;;;9.70;100.00;92223.53;5010610;28;20695;-77
2023/04/23 02:03:42;;;;;;;8.18;6.38;;;;;;;9.72;100.00;92218.00;5027874;28;20034;-76
2023/04/23 02:06:07;;;;;;;12.02;7.00;;;;;;;9.70;100.00;92218.28;4997922;28;20030;-77
2023/04/23 02:08:34;;;;;;;11.80;6.78;;;;;;;9.70;100.00;92223.53;5014004;28;20046;-77
2023/04/23 02:11:00;;;;;;;7.63;5.90;;;;;;;9.70;100.00;92220.91;5012857;28;20022;-77
2023/04/23 02:13:26;;;;;;;10.02;5.97;;;;;;;9.71;100.00;92221.69;5014065;28;20041;-77
2023/04/23 02:15:51;;;;;;;9.23;6.63;;;;;;;9.71;100.00;92222.47;5014948;28;20026;-77
2023/04/23 02:18:17;;;;;;;11.88;6.60;;;;;;;9.70;100.00;92228.75;5014146;28;20037;-77
2023/04/23 02:20:42;;;;;;;9.82;6.57;;;;;;;9.70;100.00;92218.28;5014312;28;20034;-77
2023/04/23 02:23:08;;;;;;;11.20;7.15;;;;;;;9.71;100.00;92222.47;5013628;28;20072;-77
2023/04/23 02:25:37;;;;;;;12.77;8.00;;;;;;;9.72;100.00;92224.00;5012622;28;20029;-77
2023/04/23 02:28:06;;;;;;;13.95;7.95;;;;;;;9.73;100.00;92222.97;5012423;28;20042;-77
2023/04/23 02:30:35;;;;;;;12.60;8.75;;;;;;;9.72;100.00;92224.00;5013145;28;20427;-77
2023/04/23 02:33:00;;;;;;;11.95;9.15;;;;;;;9.71;100.00;92227.69;5014743;28;20121;-77
2023/04/23 02:35:26;;;;;;;12.43;8.30;;;;;;;9.71;100.00;92217.25;5013319;28;20232;-77
2023/04/23 02:37:53;;;;;;;12.32;7.70;;;;;;;9.69;100.00;92216.75;5012574;28;20105;-77
2023/04/23 02:40:19;;;;;;;12.13;8.43;;;;;;;9.69;100.00;92221.97;5013783;28;20061;-77
2023/04/23 02:42:45;;;;;;;12.70;8.98;;;;;;;9.70;100.00;92220.91;5014495;28;20038;-77
2023/04/23 02:45:11;;;;;;;15.77;10.52;;;;;;;9.71;100.00;92224.31;5012600;28;20033;-77
2023/04/23 02:47:37;;;;;;;12.98;9.80;;;;;;;9.70;100.00;92220.91;5012811;28;20511;-77
2023/04/23 02:50:05;;;;;;;13.68;10.10;;;;;;;9.71;100.00;92219.09;5013100;28;20037;-77
2023/04/23 02:52:31;;;;;;;13.68;9.85;;;;;;;9.69;100.00;92216.75;5013554;28;20030;-77
2023/04/23 02:54:58;;;;;;;13.38;10.07;;;;;;;9.68;100.00;92215.22;5013071;28;20041;-77
2023/04/23 02:57:24;;;;;;;13.77;10.32;;;;;;;9.68;100.00;92215.22;5012615;28;20069;-77
2023/04/23 02:59:50;;;;;;;15.00;10.20;;;;;;;9.62;100.00;92198.06;4996522;28;20068;-77
2023/04/23 03:02:18;;;;;;;13.43;10.13;;;;;;;9.64;100.00;92198.56;5011213;28;20061;-77
2023/04/23 03:04:44;;;;;;;15.20;9.75;;;;;;;9.63;100.00;92209.28;4996398;28;20056;-77
2023/04/23 03:07:12;;;;;;;14.50;10.38;;;;;;;9.62;100.00;92205.91;5012815;28;20091;-77
2023/04/23 03:09:38;;;;;;;14.07;10.68;;;;;;;9.61;100.00;92200.94;5012785;28;20029;-77
2023/04/23 03:12:03;;;;;;;14.07;9.82;;;;;;;9.60;100.00;92205.41;5011937;28;20427;-76
2023/04/23 03:14:29;;;;;;;13.48;9.40;;;;;;;9.57;100.00;92198.16;5011519;28;20048;-76
2023/04/23 03:16:55;;;;;;;15.30;9.88;;;;;;;9.52;100.00;92191.13;5012409;28;20038;-77
2023/04/23 03:19:21;;;;;;;13.40;9.18;;;;;;;9.55;100.00;92202.88;5009359;28;20038;-76
2023/04/23 03:21:46;;;;;;;12.88;9.68;;;;;;;9.54;100.00;92204.69;5004121;28;20030;-76
2023/04/23 03:24:13;;;;;;;14.57;10.23;;;;;;;9.54;100.00;92203.94;5013622;28;20072;-77
2023/04/23 03:26:39;;;;;;;12.75;9.82;;;;;;;9.51;100.00;92202.66;4997115;28;20085;-78
2023/04/23 03:29:06;;;;;;;15.98;11.07;;;;;;;9.53;100.00;92197.94;5013195;28;20073;-78
2023/04/23 03:31:32;;;;;;;17.55;11.07;;;;;;;9.49;100.00;92191.72;5013211;28;20033;-78
2023/04/23 03:33:58;;;;;;;15.25;10.85;;;;;;;9.50;100.00;92189.88;5014059;28;20018;-78
2023/04/23 03:36:31;;;;;;;19.38;11.85;;;;;;;9.46;100.00;92183.69;5013967;28;20446;-78
2023/04/23 03:38:57;;;;;;;16.30;12.38;;;;;;;9.44;100.00;92185.81;4997194;28;20500;-78
2023/04/23 03:41:23;;;;;;;18.13;11.43;;;;;;;9.46;100.00;92199.38;5012878;28;20029;-78
2023/04/23 03:43:49;;;;;;;15.20;11.25;;;;;;;9.46;100.00;92194.16;5012754;28;20050;-77
2023/04/23 03:46:18;;;;;;;17.23;11.57;;;;;;;9.44;100.00;92194.41;5013347;28;20247;-77
2023/04/23 03:48:44;;;;;;;15.65;10.95;;;;;;;9.45;100.00;92192.56;5012524;28;20454;-77
2023/04/23 03:51:20;;;;;;;17.00;11.15;;;;;;;9.36;100.00;92182.00;5014857;28;20026;-78
2023/04/23 03:53:48;;;;;;;14.80;10.65;;;;;;;9.46;100.00;92199.38;5012807;28;20104;-78
2023/04/23 03:56:32;;;;;;;14.00;10.55;;;;;;;9.45;100.00;92198.56;5025120;28;20100;-78
2023/04/23 03:59:09;;;;;;;14.02;10.25;;;;;;;9.47;100.00;92203.53;5029962;28;20076;-78
2023/04/23 04:01:35;;;;;;;16.73;10.90;;;;;;;9.49;100.00;92201.41;5013072;28;20431;-77
2023/04/23 04:04:01;;;;;;;14.73;10.23;;;;;;;9.50;100.00;92193.28;5028710;28;20030;-78
2023/04/23 04:06:28;;;;;;;15.07;11.00;;;;;;;9.52;100.00;92190.38;5013135;28;20034;-78
2023/04/23 04:08:54;;;;;;;14.15;10.82;;;;;;;9.51;100.00;92186.22;4996269;28;20219;-78
2023/04/23 04:11:21;;;;;;;15.45;11.05;;;;;;;9.52;100.00;92192.97;4997969;28;20042;-78
2023/04/23 04:13:46;;;;;;;15.38;11.70;;;;;;;9.49;100.00;92194.34;5012720;28;20403;-78
2023/04/23 04:16:12;;;;;;;16.15;11.45;;;;;;;9.48;100.00;92194.59;5013831;28;20037;-77
2023/04/23 04:18:38;;;;;;;17.13;11.05;;;;;;;9.45;100.00;92195.19;5014732;28;20488;-77
2023/04/23 04:21:03;;;;;;;15.20;11.40;;;;;;;9.44;100.00;92197.03;4996687;28;20042;-77
2023/04/23 04:23:29;;;;;;;14.98;10.90;;;;;;;9.44;100.00;92197.03;4995529;28;20117;-77
2023/04/23 04:25:56;;;;;;;15.68;11.40;;;;;;;9.42;100.00;92193.16;4995991;28;20038;-78
2023/04/23 04:28:24;;;;;;;15.18;11.35;;;;;;;9.43;100.00;92194.69;5013237;28;20030;-78
2023/04/23 04:30:52;;;;;;;19.13;12.30;;;;;;;9.45;100.00;92195.97;5013197;28;20277;-77
2023/04/23 04:33:19;;;;;;;17.35;12.10;;;;;;;9.45;100.00;92195.19;5011839;28;20037;-78
2023/04/23 04:35:47;;;;;;;16.77;11.60;;;;;;;9.46;100.00;92194.91;5013873;28;20041;-78
2023/04/23 04:38:13;;;;;;;18.17;11.65;;;;;;;9.49;100.00;92193.56;5013896;28;20103;-78
2023/04/23 04:40:39;;;;;;;16.95;12.02;;;;;;;9.48;100.00;92187.56;5013265;28;20076;-78
2023/04/23 04:43:05;;;;;;;14.30;10.95;;;;;;;9.46;100.00;92181.09;5012737;28;20054;-78
2023/04/23 04:45:31;;;;;;;15.05;10.70;;;;;;;9.41;100.00;92176.69;4996162;28;20342;-77
2023/04/23 04:47:56;;;;;;;14.18;9.98;;;;;;;9.50;100.00;92189.88;5012793;28;20032;-77
2023/04/23 04:50:23;;;;;;;17.50;11.05;;;;;;;9.50;100.00;92188.06;4995840;28;20050;-78
2023/04/23 04:52:48;;;;;;;19.95;11.43;;;;;;;9.52;100.00;92187.75;5012937;28;20025;-78
2023/04/23 04:55:14;;;;;;;14.93;11.13;;;;;;;9.53;100.00;92181.47;5012933;28;20242;-78
2023/04/23 04:57:40;;;;;;;17.08;12.05;;;;;;;9.55;100.00;92182.75;5012930;28;20026;-77
2023/04/23 05:00:26;;;;;;;16.25;11.30;;;;;;;9.57;100.00;92180.63;5012611;28;20038;-77
2023/04/23 05:02:52;;;;;;;14.60;11.18;;;;;;;9.61;100.00;92180.03;5028413;28;20480;-78
2023/04/23 05:05:19;;;;;;;13.15;10.88;;;;;;;9.66;100.00;92188.59;5011581;28;20472;-78
2023/04/23 05:07:44;;;;;;;13.50;10.85;;;;;;;9.71;100.00;92185.88;5012609;28;20111;-78
2023/04/23 05:10:11;;;;;;;18.75;11.77;;;;;;;9.76;100.00;92175.31;5011973;28;20117;-78
2023/04/23 05:12:40;;;;;;;15.85;11.02;;;;;;;9.79;100.00;92187.84;5013715;28;20239;-78
2023/04/23 05:15:07;;;;;;;19.98;11.63;;;;;;;9.81;100.00;92190.16;5012550;28;20508;-77
2023/04/23 05:17:32;;;;;;;17.25;11.52;;;;;;;9.77;100.00;92181.31;5012710;28;20053;-78
2023/04/23 05:19:58;;;;;;;17.88;12.30;;;;;;;9.78;100.00;92188.13;5012197;28;20042;-77
2023/04/23 05:22:26;;;;;;;17.35;11.23;;;;;;;9.76;100.00;92185.78;5012842;28;20048;-77
2023/04/23 05:24:52;;;;;;;14.98;11.15;;;;;;;9.76;100.00;92187.63;5027681;28;20040;-78
2023/04/23 05:27:18;;;;;;;13.70;10.50;;;;;;;9.75;100.00;92186.88;5027971;28;20033;-78
2023/04/23 05:29:44;;;;;;;14.68;11.60;;;;;;;9.74;100.00;92180.06;5013132;28;20046;-77
2023/04/23 05:32:10;;;;;;;14.38;11.20;;;;;;;9.76;100.00;92182.41;5008955;28;20041;-77
2023/04/23 05:34:35;;;;;;;15.00;11.25;;;;;;;9.77;100.00;92189.97;5004666;28;20124;-78
2023/04/23 05:37:01;;;;;;;14.70;10.95;;;;;;;9.80;100.00;92186.75;5009198;28;20404;-79
2023/04/23 05:39:27;;;;;;;14.60;11.07;;;;;;;9.84;100.00;92199.25;5007315;28;20037;-79
2023/04/23 05:41:53;;;;;;;13.23;10.43;;;;;;;9.88;100.00;92190.53;4992448;28;20076;-79
2023/04/23 05:44:18;;;;;;;13.10;10.10;;;;;;;9.91;100.00;92189.22;5013256;28;20239;-78
2023/04/23 05:46:44;;;;;;;14.35;9.65;;;;;;;9.96;100.00;92194.34;4998109;28;20037;-79
2023/04/23 05:49:09;;;;;;;12.30;9.20;;;;;;;10.04;100.00;92200.72;5014070;28;20026;-80
2023/04/23 05:51:35;;;;;;;13.90;10.38;;;;;;;10.11;100.00;92201.13;5014483;28;20034;-79
2023/04/23 05:54:01;;;;;;;15.75;10.00;;;;;;;10.17;100.00;92205.97;5007937;28;20057;-80
2023/04/23 05:56:26;;;;;;;13.30;10.00;;;;;;;10.25;100.00;92206.38;4995786;28;20495;-79
2023/04/23 05:58:52;;;;;;;15.32;10.45;;;;;;;10.31;100.00;92202.63;5008009;28;20030;-78
2023/04/23 06:01:18;;;;;;;11.85;9.52;;;;;;;10.36;100.00;92202.53;5012813;28;20038;-79
2023/04/23 06:03:44;;;;;;;12.45;9.93;;;;;;;10.42;100.00;92198.75;5013946;28;20060;-78
2023/04/23 06:06:11;;;;;;;13.65;10.30;;;;;;;10.51;100.00;92198.84;5012978;28;20033;-78
2023/04/23 06:08:37;;;;;;;14.15;9.50;;;;;;;10.59;100.00;92198.94;4997597;28;20026;-78
2023/04/23 06:11:04;;;;;;;13.13;9.88;;;;;;;10.66;100.00;92195.16;4998072;28;20033;-78
2023/04/23 06:13:29;;;;;;;13.70;9.30;;;;;;;10.75;100.00;92203.88;5013006;28;20046;-79
2023/04/23 06:15:56;;;;;;;15.85;9.25;;;;;;;10.83;100.00;92205.81;5006993;28;20042;-80
2023/04/23 06:18:21;;;;;;;12.32;9.68;;;;;;;10.90;100.00;92205.38;5010754;28;20476;-79
2023/04/23 06:20:47;;;;;;;11.95;9.02;;;;;;;10.94;100.00;92204.53;5009813;28;20060;-79
2023/04/23 06:23:13;;;;;;;10.98;7.97;;;;;;;10.99;100.00;92206.25;5011811;28;20029;-78
2023/04/23 06:25:39;;;;;;;11.10;8.90;;;;;;;11.01;100.00;92204.88;5012322;28;20081;-79
2023/04/23 06:28:05;;;;;;;11.98;8.95;;;;;;;11.10;100.00;92204.16;5011768;28;20527;-78
2023/04/23 06:30:40;;;;;;;10.68;8.45;;;;;;;11.10;100.00;92207.59;4993296;28;20030;-79
2023/04/23 06:33:08;;;;;;;10.90;8.40;;;;;;;11.06;100.00;92198.00;5008213;28;20034;-80
2023/04/23 06:35:33;;;;;;;16.73;7.55;;;;;;;11.27;100.00;92206.16;5013285;28;20050;-79
2023/04/23 06:37:59;;;;;;;13.07;8.23;;;;;;;11.17;100.00;92201.94;5012820;28;20129;-79
2023/04/23 06:40:25;;;;;;;10.77;6.60;;;;;;;11.11;100.00;92203.88;5015149;28;20100;-79
2023/04/23 06:42:50;;;;;;;8.88;6.32;;;;;;;11.07;100.00;92197.69;5011282;28;20038;-79
2023/04/23 06:45:44;;;;;;;8.13;5.88;;;;;;;11.08;100.00;92201.88;4996319;28;20555;-79
2023/04/23 06:48:10;;;;;;;8.30;6.32;;;;;;;11.16;100.00;92198.53;5009937;28;20046;-79
2023/04/23 06:50:36;;;;;;;10.82;6.32;;;;;;;11.32;100.00;92198.94;5012414;28;20141;-77
2023/04/23 06:53:01;;;;;;;11.00;7.50;;;;;;;11.71;100.00;92202.78;5008604;28;20036;-78
2023/04/23 06:55:27;;;;;;;11.15;7.53;;;;;;;12.22;100.00;92192.88;5010707;28;20432;-77
2023/04/23 06:57:54;;;;;;;9.93;7.60;;;;;;;12.50;100.00;92198.69;5010847;28;20045;-76
2023/04/23 07:00:21;;;;;;;12.35;7.55;;;;;;;12.53;100.00;92202.56;5012739;28;20116;-77
2023/04/23 07:02:47;;;;;;;9.93;7.55;;;;;;;12.50;100.00;92198.69;4995334;28;20351;-76
2023/04/23 07:05:13;;;;;;;9.98;7.85;;;;;;;12.44;100.00;92199.91;5010822;28;20037;-76
2023/04/23 07:07:41;;;;;;;9.82;7.25;;;;;;;12.31;100.00;92200.78;5013134;28;20042;-78
2023/04/23 07:10:09;;;;;;;13.23;7.97;;;;;;;12.20;100.00;92197.66;4995718;28;20046;-77
2023/04/23 07:12:35;;;;;;;11.73;8.35;;;;;;;12.27;100.00;92195.34;5011664;28;20041;-77
2023/04/23 07:15:01;;;;;;;13.35;8.55;;;;;;;12.20;100.00;92195.78;5011692;28;20101;-77
2023/04/23 07:17:27;;;;;;;12.77;8.80;;;;;;;12.12;100.00;92182.66;5010780;28;20041;-77
2023/04/23 07:19:52;;;;;;;11.73;8.05;;;;;;;12.11;100.00;92183.72;5012386;28;20038;-76
2023/04/23 07:22:18;;;;;;;12.52;8.60;;;;;;;12.25;100.00;92192.28;5013115;28;20079;-75
2023/04/23 07:24:43;;;;;;;11.18;8.38;;;;;;;12.20;100.00;92190.53;5013791;28;20030;-75
2023/04/23 07:27:09;;;;;;;14.07;8.57;;;;;;;12.20;100.00;92187.16;5006916;28;20142;-78
2023/04/23 07:29:35;;;;;;;12.13;9.30;;;;;;;12.27;100.00;92182.22;5006979;28;20045;-76
2023/04/23 07:32:00;;;;;;;12.25;9.68;;;;;;;12.11;100.00;92184.47;5009191;28;20068;-77
2023/04/23 07:34:26;;;;;;;11.75;8.40;;;;;;;12.14;100.00;92181.28;5012718;28;20034;-76
2023/04/23 07:36:51;;;;;;;8.85;6.32;;;;;;;12.47;100.00;92173.03;5009580;28;20045;-77
2023/04/23 07:39:17;;;;;;;9.70;7.25;;;;;;;12.20;100.00;92177.41;5011324;28;20076;-76
2023/04/23 07:41:43;;;;;;;10.75;7.55;;;;;;;12.20;100.00;92177.41;5009514;28;20535;-76
2023/04/23 07:44:08;;;;;;;10.63;8.23;;;;;;;12.16;100.00;92179.13;5011487;28;20037;-76
2023/04/23 07:46:34;;;;;;;12.27;8.85;;;;;;;11.83;100.00;92181.25;5006926;28;20080;-76
2023/04/23 07:49:00;;;;;;;10.82;8.15;;;;;;;11.79;100.00;92178.44;5007981;28;20026;-76
2023/04/23 07:51:25;;;;;;;11.30;8.23;;;;;;;11.73;100.00;92178.88;5008614;28;20080;-76
2023/04/23 07:53:55;;;;;;;11.07;8.23;;;;;;;11.78;100.00;92186.63;4993850;28;20034;-78
2023/04/23 07:56:21;;;;;;;11.85;8.63;;;;;;;11.87;100.00;92183.00;5010139;28;20137;-78
2023/04/23 07:58:47;;;;;;;10.98;8.20;;;;;;;12.02;100.00;92184.47;5009824;28;20128;-77
2023/04/23 08:01:13;;;;;;;11.18;7.90;;;;;;;12.12;100.00;92180.81;5008801;28;20040;-77
2023/04/23 08:03:39;;;;;;;11.68;8.55;;;;;;;12.20;100.00;92181.91;4993765;28;20120;-77
2023/04/23 08:06:05;;;;;;;14.10;8.90;;;;;;;12.25;100.00;92187.03;5008323;28;20056;-77
2023/04/23 08:08:30;;;;;;;11.90;8.77;;;;;;;12.28;100.00;92186.41;5011182;28;20565;-77
2023/04/23 08:10:57;;;;;;;9.35;7.60;;;;;;;12.25;100.00;92193.06;5012981;28;20072;-77
2023/04/23 08:13:24;;;;;;;8.60;5.75;;;;;;;12.28;100.00;92191.66;5008325;28;20053;-78
2023/04/23 08:15:50;;;;;;;9.68;6.93;;;;;;;12.03;100.00;92185.25;5009151;28;20543;-76
2023/04/23 08:18:16;;;;;;;9.23;6.70;;;;;;;11.85;100.00;92189.59;5003005;28;20049;-79
2023/04/23 08:20:42;;;;;;;11.50;7.28;;;;;;;11.70;100.00;92193.34;5011764;28;20038;-78
2023/04/23 08:23:08;;;;;;;9.90;7.65;;;;;;;11.65;100.00;92196.88;5016256;28;20021;-79
2023/04/23 08:25:33;;;;;;;10.23;7.20;;;;;;;11.61;100.00;92200.38;5004966;28;20041;-79
2023/04/23 08:27:59;;;;;;;12.20;7.50;;;;;;;11.65;100.00;92201.34;4998004;28;20037;-78
2023/04/23 08:30:25;;;;;;;10.65;7.82;;;;;;;11.73;100.00;92192.78;4998922;28;20394;-79
2023/04/23 08:32:54;;;;;;;14.35;10.65;;;;;;;11.76;100.00;92199.25;5016521;28;20033;-78
2023/04/23 08:35:22;;;;;;;10.88;8.25;;;;;;;11.80;100.00;92198.34;5031697;28;20042;-78
2023/04/23 08:37:49;;;;;;;11.73;7.88;;;;;;;11.83;100.00;92192.50;5016854;28;20488;-79
2023/04/23 08:40:15;;;;;;;11.35;7.78;;;;;;;11.88;100.00;92200.25;5016673;28;20041;-79
2023/04/23 08:42:51;;;;;;;13.30;7.93;;;;;;;11.96;100.00;92198.78;5015827;28;20385;-79
2023/04/23 08:45:18;;;;;;;9.30;7.32;;;;;;;12.13;100.00;92197.31;5017127;28;20049;-78
2023/04/23 08:47:44;;;;;;;10.85;7.63;;;;;;;12.00;100.00;92204.97;5016248;28;20037;-78
2023/04/23 08:50:18;;;;;;;14.85;10.07;;;;;;;12.12;100.00;92203.66;5012776;28;20038;-79
2023/04/23 08:52:55;;;;;;;11.93;8.85;;;;;;;12.07;100.00;92201.94;4995432;28;20038;-77
2023/04/23 08:55:22;;;;;;;12.57;9.52;;;;;;;12.00;100.00;92209.44;4993682;28;20400;-77
2023/04/23 08:57:48;;;;;;;9.70;6.13;;;;;;;12.13;100.00;92207.81;4994537;28;20026;-78
2023/04/23 09:00:16;;;;;;;14.90;11.27;;;;;;;11.98;100.00;92208.94;5011728;28;20128;-78
2023/04/23 09:02:44;;;;;;;13.30;10.05;;;;;;;11.94;100.00;92202.78;5016014;28;20034;-79
2023/04/23 09:05:11;;;;;;;11.98;9.60;;;;;;;12.13;100.00;92207.81;5015076;28;20080;-79
2023/04/23 09:07:36;;;;;;;15.05;9.35;;;;;;;12.09;100.00;92205.00;5016010;28;20495;-79
2023/04/23 09:10:05;;;;;;;12.88;10.05;;;;;;;12.07;100.00;92205.31;5015583;28;20041;-79
2023/04/23 09:12:31;;;;;;;11.48;8.35;;;;;;;12.17;100.00;92196.41;5015810;28;20480;-79
2023/04/23 09:14:57;;;;;;;8.85;6.60;;;;;;;12.07;100.00;92196.69;5016507;28;20033;-79
2023/04/23 09:17:27;;;;;;;9.77;7.25;;;;;;;12.19;100.00;92209.22;4982121;28;20040;-79
2023/04/23 09:19:53;;;;;;;10.63;8.38;;;;;;;12.01;100.00;92200.50;5014759;28;20096;-79
2023/04/23 09:22:41;;;;;;;12.60;9.05;;;;;;;12.02;100.00;92200.22;5016032;28;20033;-79
2023/04/23 09:25:11;;;;;;;11.43;8.35;;;;;;;11.94;100.00;92194.91;5015093;28;20038;-79
2023/04/23 09:27:37;;;;;;;9.73;7.47;;;;;;;11.78;100.00;92197.88;5011594;28;20058;-79
2023/04/23 09:30:07;;;;;;;14.57;9.98;;;;;;;11.66;100.00;92197.63;4996740;28;20065;-79
2023/04/23 09:32:37;;;;;;;18.08;13.50;;;;;;;11.48;100.00;92196.75;4997178;28;20105;-79
2023/04/23 09:35:04;;;;;;;16.95;12.60;;;;;;;11.53;100.00;92194.03;4995198;28;20030;-79
2023/04/23 09:37:30;;;;;;;18.90;13.07;;;;;;;11.63;100.00;92187.75;4996425;28;20373;-78
2023/04/23 09:40:07;;;;;;;20.17;13.38;;;;;;;11.64;100.00;92184.06;5009117;28;20529;-78
2023/04/23 09:42:33;;;;;;;17.63;13.48;;;;;;;11.87;100.00;92192.69;5016407;28;20398;-78
2023/04/23 09:45:06;;;;;;;18.70;12.85;;;;;;;12.03;100.00;92186.00;5007456;28;20108;-78
2023/04/23 09:47:33;;;;;;;19.23;13.75;;;;;;;12.17;100.00;92185.91;5008525;28;20056;-77
2023/04/23 09:50:00;;;;;;;19.70;12.77;;;;;;;12.38;100.00;92182.75;4993217;28;20029;-79
2023/04/23 09:52:25;;;;;;;17.65;12.18;;;;;;;12.54;100.00;92178.63;5009253;28;20448;-77
2023/04/23 09:54:51;;;;;;;18.10;11.70;;;;;;;12.52;100.00;92175.53;5007920;28;20065;-77
2023/04/23 09:57:17;;;;;;;13.65;10.52;;;;;;;12.55;100.00;92161.03;5007706;28;20037;-78
2023/04/23 09:59:43;;;;;;;11.43;9.13;;;;;;;12.55;100.00;92174.91;5010117;28;20100;-78
2023/04/23 10:02:10;;;;;;;13.90;9.52;;;;;;;12.31;100.00;92179.78;5007452;28;20484;-77
2023/04/23 10:04:37;;;;;;;14.70;10.23;;;;;;;12.10;100.00;92177.69;5024110;28;20104;-77
2023/04/23 10:07:07;;;;;;;14.25;11.02;;;;;;;11.97;100.00;92170.69;5008966;28;20093;-78
2023/04/23 10:09:33;;;;;;;18.02;11.93;;;;;;;11.89;100.00;92174.84;5011179;28;20353;-78
2023/04/23 10:12:02;;;;;;;16.08;10.60;;;;;;;11.92;100.00;92173.47;5007737;28;20177;-78
2023/04/23 10:14:29;;;;;;;17.95;11.50;;;;;;;11.98;100.00;92170.41;5006885;28;20500;-78
2023/04/23 10:16:58;;;;;;;14.75;10.30;;;;;;;12.02;100.00;92178.44;5011898;28;20508;-78
2023/04/23 10:19:24;;;;;;;15.93;10.23;;;;;;;12.23;100.00;92174.22;5008231;28;20051;-79
2023/04/23 10:22:04;;;;;;;15.45;10.95;;;;;;;12.50;100.00;92183.72;4993470;28;20420;-78
2023/04/23 10:24:36;;;;;;;16.23;10.85;;;;;;;12.64;100.00;92175.72;5007909;28;20088;-78
2023/04/23 10:27:04;;;;;;;16.58;11.77;;;;;;;12.72;100.00;92168.91;5015524;28;20057;-78
2023/04/23 10:29:34;;;;;;;17.55;12.77;;;;;;;12.91;100.00;92166.03;5030269;28;20053;-78
2023/04/23 10:32:02;;;;;;;16.38;12.98;;;;;;;13.07;100.00;92164.47;5013008;28;20034;-78
2023/04/23 10:34:30;;;;;;;21.95;15.00;;;;;;;13.46;100.00;92160.16;4996559;28;20038;-77
2023/04/23 10:37:01;;;;;;;19.08;13.00;;;;;;;13.87;100.00;92150.97;5012661;28;20038;-77
2023/04/23 10:39:34;;;;;;;15.70;10.80;;;;;;;14.43;100.00;92155.41;5013644;28;20033;-78
2023/04/23 10:42:01;;;;;;;15.07;10.52;;;;;;;15.01;100.00;92156.47;5012602;28;20322;-78
2023/04/23 10:44:36;;;;;;;11.75;7.65;;;;;;;15.32;100.00;92145.56;5013725;28;20623;-77
2023/04/23 10:47:03;;;;;;;13.57;10.05;;;;;;;14.80;100.00;92148.56;5011775;28;20098;-79
2023/04/23 10:49:31;;;;;;;13.60;10.18;;;;;;;15.26;97.39;92135.53;5012611;28;20064;-79
2023/04/23 10:52:09;;;;;;;13.68;10.50;;;;;;;15.56;94.73;92146.75;5012117;28;20018;-77
2023/04/23 10:54:35;;;;;;;11.45;9.20;;;;;;;15.40;94.97;92142.09;5012379;28;20125;-77
2023/04/23 10:57:03;;;;;;;11.93;8.50;;;;;;;15.27;95.93;92142.34;5011161;28;20121;-76
2023/04/23 10:59:31;;;;;;;10.57;7.22;;;;;;;15.31;95.64;92138.75;5024118;28;20053;-77
2023/04/23 11:02:00;;;;;;;12.57;9.27;;;;;;;15.43;95.65;92140.66;4988827;28;20038;-77
2023/04/23 11:04:27;;;;;;;13.32;8.20;;;;;;;15.71;93.19;92126.91;5009166;28;20042;-77
2023/04/23 11:07:03;;;;;;;10.00;7.18;;;;;;;15.50;93.69;92135.63;5008235;28;20037;-78
2023/04/23 11:09:36;;;;;;;12.10;9.15;;;;;;;15.73;93.41;92128.13;5008626;28;20038;-77
2023/04/23 11:12:04;;;;;;;11.98;8.48;;;;;;;16.19;88.82;92122.84;5012408;28;20502;-77
2023/04/23 11:14:48;;;;;;;17.30;5.75;;;;;;;15.90;89.71;92119.28;5013606;28;20025;-77
2023/04/23 11:17:17;;;;;;;10.27;8.20;;;;;;;15.77;90.61;92122.97;5011664;28;20046;-77
2023/04/23 11:20:02;;;;;;;12.82;8.65;;;;;;;15.83;88.19;92124.31;5013905;28;20038;-77
2023/04/23 11:22:48;;;;;;;9.73;6.63;;;;;;;15.59;87.71;92131.03;5028634;28;20026;-77